Meteo Giornale » Osservazioni meteo Slovenia » Cerklje

ore: 08:00 - Osservazioni Meteo Cerklje
Lat. 45° 54' N Lon. 15° 31' E Alt. 155 metri s.l.m.

molto_nuvoloso Europe/Ljubljana

9 °C

Molto Nuvoloso

Temp. 24 Ore

9 °C

22 °C

Sud/Sud-Ovest

7.4 Km/h

Dew point 6 °C

Umidità 81 %

Visibilità  10 Km

Il sole sorge alle ore 06:49

Il sole tramonta alle ore 18:49

Data e Ora Cielo e Fenomeni T °C DP °C Um. % Pres. hPa Vis. km Vento km/h
Oggi h: 08:00 molto_nuvoloso Molto Nuvoloso 9 6 81 996 10 S/SO 7.4
Oggi h: 07:00 coperto Coperto 9 6 81 995 10 SO 9.3
Oggi h: 06:00 nuvoloso_piovaschi Debole Rovescio di Pioggia 9 7 87 995 10 O/SO 7.4
Oggi h: 05:00 coperto_pioggia Pioggia 9 8 93 995 10 N 3.7
Oggi h: 04:30 coperto_pioggia Pioggia 10 9 93 995 5 O/SO 7.4
Oggi h: 04:00 coperto_pioggia Pioggia 10 9 93 993 8 NE 11.1
Oggi h: 03:30 nuvoloso_piovaschi Rovescio di Pioggia 11 10 93 993 10 NE 7.4
Oggi h: 03:00 nuvoloso_piovaschi Rovescio di Pioggia 12 10 87 993 10 E/SE 9.3
Oggi h: 02:30 molto_nuvoloso Molto Nuvoloso 13 12 93 992 10 E 20.3
Oggi h: 02:00 molto_nuvoloso Molto Nuvoloso 13 12 93 992 10 E 9.3
Oggi h: 01:30 sereno Sereno 13 12 93 992 10 N/NE 11.1
Oggi h: 01:00 sereno Sereno 13 12 93 993 10 N 3.7
Oggi h: 00:30 sereno Sereno 13 12 93 993 10 N 3.7
Oggi h: 00:00 sereno Sereno 13 12 93 992 10 N 5.5
Ieri h: 23:30 sereno Sereno 13 12 93 992 10 N 3.7
Ieri h: 23:00 sereno Sereno 13 12 93 992 10 N 5.5
Ieri h: 22:30 nuvoloso_piovaschi Debole Rovescio di Pioggia 13 12 93 993 10 O 11.1
Ieri h: 22:00 nuvoloso_piovaschi Rovescio di Pioggia 12 12 100 994 3 O/SO 29.6
Ieri h: 21:30 sereno Sereno 15 14 93 992 10 E/NE 13
Ieri h: 21:00 sereno Sereno 16 14 87 992 10 E/NE 9.3
Ieri h: 20:30 sereno Sereno 17 13 77 992 10 NE 9.3
Ieri h: 20:00 molto_nuvoloso Molto Nuvoloso 18 13 72 992 10 E/SE 9.3
Ieri h: 19:30 molto_nuvoloso Molto Nuvoloso 18 15 82 993 10 S 9.3
Ieri h: 19:00 nuvoloso_temporali Temporale nelle Vicinanze 18 17 93 993 10 N 3.7
Ieri h: 17:00 nuvoloso Rovescio nelle Vicinanze 19 15 77 995 10 O 13
Ieri h: 16:30 molto_nuvoloso Molto Nuvoloso 20 16 77 995 10 N 1.8
Ieri h: 16:00 molto_nuvoloso Molto Nuvoloso 20 15 72 995 10 N 7.4
Ieri h: 15:30 nuvoloso_temporali Temporale nelle Vicinanze 21 17 77 996 10 O/NO 9.3
Ieri h: 15:00 molto_nuvoloso Molto Nuvoloso 21 17 77 996 10 N 5.5
Ieri h: 14:30 molto_nuvoloso Molto Nuvoloso 21 15 68 997 10 O/NO 13
Ieri h: 14:00 nuvoloso_temporali Temporale nelle Vicinanze 21 15 68 997 10 N 14.8
Ieri h: 13:30 nuvoloso_temporali Temporale nelle Vicinanze 22 15 64 997 10 E/SE 9.3
Ieri h: 13:00 molto_nuvoloso Molto Nuvoloso 21 16 73 998 10 N 1.8
Ieri h: 12:30 molto_nuvoloso Molto Nuvoloso 21 16 73 998 10 NE 7.4
Ieri h: 11:30 nuvoloso Nuvoloso 20 16 77 999 10 E/NE 9.3
Ieri h: 11:00 nuvoloso Nuvoloso 19 16 82 1000 10 N/NE 7.4
Ieri h: 10:30 nuvoloso Nuvoloso 18 16 88 1000 10 NE 7.4
Ieri h: 10:00 molto_nuvoloso Molto Nuvoloso 17 16 93 1000 10 NE 9.3
Ieri h: 09:30 molto_nuvoloso Molto Nuvoloso 17 15 88 1000 10 E/NE 7.4
Ieri h: 09:00 molto_nuvoloso Molto Nuvoloso 16 15 93 999 10 E/NE 11.1